Time;durP1;ratioP1;P1;durP2;ratioP2;P2;SDS_P1;SDS_P2;PMS_P1;PMS_P2;Temp;Humidity;BMP_temperature;BMP_pressure;BME280_temperature;BME280_humidity;BME280_pressure;Samples;Min_cycle;Max_cycle;Signal;HPM_P1;HPM_P2
2022/07/17 00:02:48;;;;;;;6.45;3.97;;;;;;;16.83;55.19;99926.16;5184872;28;20061;-69
2022/07/17 00:05:39;;;;;;;5.82;3.78;;;;;;;16.69;55.81;99924.06;5185434;28;20050;-69
2022/07/17 00:08:31;;;;;;;7.85;4.38;;;;;;;16.72;55.22;99917.53;5184929;28;20527;-68
2022/07/17 00:11:22;;;;;;;8.07;4.18;;;;;;;16.63;56.13;99919.34;5190590;28;20139;-70
2022/07/17 00:14:12;;;;;;;10.38;4.80;;;;;;;16.68;55.57;99917.00;5191834;28;20054;-68
2022/07/17 00:17:02;;;;;;;15.90;5.88;;;;;;;16.53;56.17;99926.66;5183924;28;20065;-69
2022/07/17 00:19:53;;;;;;;8.77;4.95;;;;;;;16.53;55.89;99927.50;5193659;28;20923;-71
2022/07/17 00:22:43;;;;;;;10.75;4.72;;;;;;;16.56;55.95;99886.19;5184706;28;20087;-71
2022/07/17 00:25:33;;;;;;;11.68;4.57;;;;;;;16.83;55.37;99920.81;5196475;28;20048;-71
2022/07/17 00:28:25;;;;;;;14.45;5.45;;;;;;;16.73;55.77;99925.41;5195461;28;20439;-70
2022/07/17 00:31:15;;;;;;;13.95;6.05;;;;;;;16.52;56.27;99917.75;5188978;28;20146;-70
2022/07/17 00:34:05;;;;;;;11.13;5.72;;;;;;;16.64;55.77;99945.13;5187197;28;20522;-70
2022/07/17 00:36:55;;;;;;;7.22;5.18;;;;;;;16.44;56.34;99941.81;5186545;28;20048;-69
2022/07/17 00:39:46;;;;;;;8.75;4.97;;;;;;;16.43;56.50;99943.66;5188726;28;20053;-69
2022/07/17 00:42:39;;;;;;;10.90;6.30;;;;;;;16.19;56.77;99939.00;5182471;28;20124;-69
2022/07/17 00:45:30;;;;;;;11.93;6.40;;;;;;;15.94;56.60;99934.47;5192223;28;20066;-69
2022/07/17 00:48:21;;;;;;;10.05;5.50;;;;;;;16.23;57.10;99942.22;5194557;28;20153;-68
2022/07/17 00:51:11;;;;;;;13.80;6.30;;;;;;;16.35;57.31;99935.56;5179770;28;20049;-69
2022/07/17 00:54:03;;;;;;;9.73;5.78;;;;;;;16.08;57.38;99939.25;5186818;28;20109;-70
2022/07/17 00:57:00;;;;;;;13.98;6.18;;;;;;;15.83;58.18;99937.41;5189872;28;20042;-70
2022/07/17 00:59:50;;;;;;;16.60;6.70;;;;;;;15.73;58.43;99932.97;5194541;28;20046;-71
2022/07/17 01:02:40;;;;;;;10.43;5.95;;;;;;;15.73;58.74;99942.81;5189579;28;20132;-69
2022/07/17 01:05:31;;;;;;;15.00;7.15;;;;;;;15.97;58.30;99944.84;5189496;28;20042;-70
2022/07/17 01:08:22;;;;;;;19.35;6.25;;;;;;;15.75;59.10;99946.16;5190660;28;20053;-69
2022/07/17 01:11:13;;;;;;;14.32;6.20;;;;;;;15.84;58.87;99945.25;5188813;28;20103;-70
2022/07/17 01:14:03;;;;;;;12.32;6.15;;;;;;;15.60;59.79;99947.69;5186999;28;20634;-70
2022/07/17 01:16:54;;;;;;;10.88;5.78;;;;;;;15.43;58.45;99946.66;5189008;28;20095;-70
2022/07/17 01:19:45;;;;;;;13.82;7.13;;;;;;;15.45;59.96;99947.38;5189461;28;20103;-69
2022/07/17 01:22:43;;;;;;;12.35;6.35;;;;;;;15.33;60.40;99948.56;5194530;28;20104;-69
2022/07/17 01:25:34;;;;;;;11.75;5.80;;;;;;;15.32;60.30;99944.22;5183686;28;20128;-70
2022/07/17 01:28:25;;;;;;;14.60;6.38;;;;;;;15.58;59.67;99936.28;5186433;28;20053;-70
2022/07/17 01:31:15;;;;;;;14.88;6.35;;;;;;;15.56;59.86;99943.63;5189560;28;20046;-71
2022/07/17 01:34:07;;;;;;;10.40;6.13;;;;;;;15.53;59.63;99939.44;5190723;28;20057;-71
2022/07/17 01:36:58;;;;;;;13.15;6.25;;;;;;;15.39;59.44;99945.28;5181743;28;20551;-69
2022/07/17 01:39:54;;;;;;;10.77;6.10;;;;;;;15.24;60.79;99947.66;5186071;28;20053;-70
2022/07/17 01:42:47;;;;;;;14.88;6.80;;;;;;;15.63;59.56;99950.03;5182835;28;20053;-70
2022/07/17 01:45:39;;;;;;;16.57;6.43;;;;;;;15.35;60.35;99942.09;5187425;28;20123;-69
2022/07/17 01:48:29;;;;;;;14.10;6.78;;;;;;;15.48;59.78;99949.72;5190774;28;20054;-70
2022/07/17 01:51:19;;;;;;;12.93;6.72;;;;;;;15.47;59.53;99954.25;5188967;28;20459;-69
2022/07/17 01:54:09;;;;;;;9.85;6.20;;;;;;;15.42;59.57;99940.47;5177542;28;20080;-69
2022/07/17 01:57:00;;;;;;;16.55;6.97;;;;;;;15.18;61.31;99943.75;5188244;28;20085;-69
2022/07/17 01:59:53;;;;;;;13.90;6.47;;;;;;;15.25;61.11;99949.31;5185977;28;20100;-69
2022/07/17 02:02:44;;;;;;;16.27;6.43;;;;;;;15.27;61.64;99936.66;5173513;28;20048;-70
2022/07/17 02:05:35;;;;;;;13.40;6.20;;;;;;;15.30;61.29;99925.69;5192202;28;20044;-68
2022/07/17 02:08:25;;;;;;;13.63;5.88;;;;;;;15.42;60.84;99935.13;5182587;28;20203;-70
2022/07/17 02:11:15;;;;;;;12.30;6.55;;;;;;;15.41;60.65;99941.47;5186662;28;20705;-70
2022/07/17 02:14:05;;;;;;;12.20;6.25;;;;;;;15.32;61.17;99937.03;5187715;28;20527;-70
2022/07/17 02:16:56;;;;;;;14.20;6.28;;;;;;;15.20;61.64;99938.28;5188522;28;20171;-69
2022/07/17 02:19:46;;;;;;;11.68;5.97;;;;;;;15.07;61.19;99930.63;5195968;28;20056;-69
2022/07/17 02:22:36;;;;;;;14.50;6.38;;;;;;;15.02;61.53;99941.72;5190339;28;20056;-69
2022/07/17 02:25:27;;;;;;;12.55;5.95;;;;;;;14.93;61.70;99939.97;5192042;28;20061;-70
2022/07/17 02:28:18;;;;;;;11.13;6.00;;;;;;;14.99;61.81;99931.34;5191977;28;20053;-70
2022/07/17 02:31:09;;;;;;;15.05;6.25;;;;;;;15.07;61.85;99927.94;5186943;28;20132;-70
2022/07/17 02:33:59;;;;;;;13.95;6.25;;;;;;;14.90;61.57;99929.59;5188286;28;20110;-69
2022/07/17 02:36:49;;;;;;;12.75;6.22;;;;;;;14.80;62.27;99931.44;5187668;28;20045;-69
2022/07/17 02:39:52;;;;;;;16.50;6.38;;;;;;;14.88;61.75;99938.72;5181294;28;20232;-68
2022/07/17 02:42:42;;;;;;;12.30;6.68;;;;;;;14.62;62.62;99930.56;5189183;28;20118;-71
2022/07/17 02:45:32;;;;;;;13.80;6.30;;;;;;;14.66;62.38;99924.75;5186426;28;20174;-70
2022/07/17 02:48:22;;;;;;;11.05;6.43;;;;;;;14.64;62.03;99904.56;5193001;28;20057;-69
2022/07/17 02:51:12;;;;;;;13.80;6.53;;;;;;;14.64;61.99;99913.41;5189521;28;20057;-69
2022/07/17 02:54:02;;;;;;;13.07;6.32;;;;;;;14.47;62.57;99928.34;5190081;28;20052;-70
2022/07/17 02:56:52;;;;;;;11.02;6.45;;;;;;;14.44;62.94;99922.44;5187996;28;20139;-69
2022/07/17 02:59:45;;;;;;;12.25;6.38;;;;;;;14.35;61.93;99910.81;5186954;28;20147;-69
2022/07/17 03:02:35;;;;;;;11.63;6.57;;;;;;;14.37;62.66;99924.00;5183941;28;20052;-70
2022/07/17 03:05:25;;;;;;;16.88;7.10;;;;;;;14.46;62.49;99926.63;5191091;28;20059;-69
2022/07/17 03:08:15;;;;;;;12.82;6.47;;;;;;;14.53;61.88;99925.09;5195302;28;20057;-71
2022/07/17 03:11:05;;;;;;;12.60;6.68;;;;;;;14.57;62.82;99936.34;5189132;28;20061;-70
2022/07/17 03:13:55;;;;;;;13.73;6.70;;;;;;;14.40;63.49;99924.53;5175501;28;20104;-71
2022/07/17 03:16:46;;;;;;;11.25;6.65;;;;;;;14.29;63.55;99903.38;5187235;28;20095;-70
2022/07/17 03:19:37;;;;;;;14.23;7.07;;;;;;;14.30;64.05;99929.06;5181958;28;20045;-69
2022/07/17 03:22:28;;;;;;;10.40;6.32;;;;;;;14.33;63.17;99926.94;5186527;28;20552;-70
2022/07/17 03:25:18;;;;;;;9.85;6.50;;;;;;;14.37;62.76;99927.53;5189333;28;20219;-69
2022/07/17 03:28:08;;;;;;;10.30;6.95;;;;;;;14.38;62.63;99929.19;5190169;28;20056;-69
2022/07/17 03:30:58;;;;;;;14.07;7.60;;;;;;;14.31;63.02;99928.09;5187626;28;20056;-69
2022/07/17 03:33:48;;;;;;;12.48;6.90;;;;;;;14.29;62.42;99935.41;5195431;28;20059;-69
2022/07/17 03:36:38;;;;;;;12.02;7.05;;;;;;;14.26;62.58;99941.03;5186040;28;20392;-69
2022/07/17 03:39:28;;;;;;;12.70;7.22;;;;;;;14.39;62.20;99941.53;5185034;28;20057;-69
2022/07/17 03:42:18;;;;;;;11.25;7.43;;;;;;;14.22;62.63;99934.31;5179867;28;20655;-69
2022/07/17 03:45:09;;;;;;;11.18;6.50;;;;;;;14.18;63.31;99936.41;5192480;28;20050;-69
2022/07/17 03:47:59;;;;;;;17.40;7.60;;;;;;;14.02;63.56;99937.00;5188176;28;20045;-69
2022/07/17 03:50:49;;;;;;;13.63;7.53;;;;;;;14.14;63.83;99932.38;5187839;28;20119;-69
2022/07/17 03:53:39;;;;;;;12.50;7.30;;;;;;;14.23;63.67;99930.63;5187021;28;20060;-70
2022/07/17 03:56:29;;;;;;;11.95;7.43;;;;;;;14.14;63.27;99934.16;5193104;28;20152;-69
2022/07/17 03:59:19;;;;;;;12.73;7.65;;;;;;;14.06;63.50;99941.06;5185418;28;20823;-70
2022/07/17 04:02:10;;;;;;;11.60;7.13;;;;;;;13.98;63.88;99937.44;5188385;28;20528;-70
2022/07/17 04:05:00;;;;;;;12.55;6.90;;;;;;;13.80;64.95;99932.81;5193281;28;20049;-69
2022/07/17 04:07:50;;;;;;;13.27;7.55;;;;;;;14.06;64.96;99919.72;5182535;28;20065;-69
2022/07/17 04:10:41;;;;;;;12.05;6.85;;;;;;;14.07;65.13;99934.75;5184278;28;20053;-69
2022/07/17 04:13:31;;;;;;;11.18;7.25;;;;;;;13.87;65.27;99922.41;5180956;28;20049;-68
2022/07/17 04:16:22;;;;;;;13.10;7.15;;;;;;;13.86;64.18;99944.75;5179611;28;20046;-69
2022/07/17 04:19:12;;;;;;;11.10;6.97;;;;;;;13.88;64.72;99941.94;5195854;28;20060;-69
2022/07/17 04:22:02;;;;;;;14.50;7.07;;;;;;;13.93;65.61;99945.00;5182655;28;20057;-69
2022/07/17 04:24:53;;;;;;;9.70;6.85;;;;;;;14.16;64.96;99949.03;5183593;28;20104;-68
2022/07/17 04:27:43;;;;;;;14.38;7.38;;;;;;;14.01;65.97;99955.81;5190205;28;20050;-69
2022/07/17 04:30:34;;;;;;;15.75;7.63;;;;;;;13.98;65.36;99956.94;5187854;28;20546;-69
2022/07/17 04:33:24;;;;;;;15.80;7.55;;;;;;;13.96;65.21;99952.72;5192522;28;20424;-69
2022/07/17 04:36:14;;;;;;;13.23;8.02;;;;;;;14.05;65.37;99950.06;5185933;28;20046;-69
2022/07/17 04:39:04;;;;;;;17.35;7.22;;;;;;;14.05;65.94;99952.72;5184434;28;20060;-69
2022/07/17 04:41:54;;;;;;;14.07;7.85;;;;;;;14.18;65.87;99968.44;5185570;28;20128;-69
2022/07/17 04:44:45;;;;;;;12.52;7.70;;;;;;;14.17;64.04;99957.88;5184487;28;20045;-69
2022/07/17 04:47:35;;;;;;;16.67;7.28;;;;;;;14.16;64.65;99951.72;5188360;28;20092;-69
2022/07/17 04:50:25;;;;;;;14.70;8.13;;;;;;;14.24;64.94;99964.34;5191858;28;20060;-68
2022/07/17 04:53:15;;;;;;;11.75;7.68;;;;;;;14.29;64.56;99954.06;5194137;28;20055;-69
2022/07/17 04:56:12;;;;;;;10.95;7.28;;;;;;;14.25;63.81;99952.69;5187586;28;20732;-69
2022/07/17 04:59:03;;;;;;;11.23;7.47;;;;;;;14.30;63.93;99959.28;5192100;28;20089;-69
2022/07/17 05:01:53;;;;;;;14.30;7.72;;;;;;;14.49;65.24;99961.03;5195941;28;20111;-69
2022/07/17 05:04:44;;;;;;;14.70;10.18;;;;;;;14.64;66.41;99949.94;5192617;28;20053;-69
2022/07/17 05:07:34;;;;;;;14.48;8.65;;;;;;;14.84;65.75;99961.38;5191965;28;20654;-69
2022/07/17 05:10:24;;;;;;;20.30;9.38;;;;;;;14.78;66.97;99968.97;5181926;28;20049;-68
2022/07/17 05:13:17;;;;;;;12.20;8.02;;;;;;;14.89;65.47;99967.94;5182636;28;20108;-69
2022/07/17 05:16:07;;;;;;;13.40;8.68;;;;;;;14.92;65.41;99956.13;5185121;28;20045;-69
2022/07/17 05:18:57;;;;;;;14.55;8.45;;;;;;;14.97;64.86;99968.06;5194007;28;20050;-68
2022/07/17 05:21:48;;;;;;;17.95;8.32;;;;;;;14.99;66.07;99966.06;5195553;28;20111;-69
2022/07/17 05:24:38;;;;;;;14.65;8.43;;;;;;;15.05;65.10;99964.63;5193773;28;20047;-69
2022/07/17 05:27:28;;;;;;;11.90;8.48;;;;;;;15.24;64.88;99955.66;5189815;28;20045;-69
2022/07/17 05:30:18;;;;;;;13.68;9.00;;;;;;;15.32;64.43;99963.75;5183839;28;20516;-69
2022/07/17 05:33:08;;;;;;;15.80;9.23;;;;;;;15.42;64.02;99964.53;5187301;28;20057;-67
2022/07/17 05:35:59;;;;;;;14.05;9.18;;;;;;;15.42;64.27;99947.66;5186388;28;20053;-67
2022/07/17 05:38:49;;;;;;;14.48;9.52;;;;;;;15.67;64.21;99946.94;5188884;28;20091;-68
2022/07/17 05:41:39;;;;;;;12.60;8.95;;;;;;;15.82;64.26;99962.44;5182885;28;20058;-67
2022/07/17 05:44:29;;;;;;;15.23;8.25;;;;;;;16.02;62.08;99961.25;5184562;28;20727;-67
2022/07/17 05:47:19;;;;;;;14.60;8.35;;;;;;;16.21;61.08;99973.63;5180086;28;20098;-68
2022/07/17 05:50:09;;;;;;;12.93;8.60;;;;;;;16.13;62.06;99976.25;5186691;28;20557;-68
2022/07/17 05:53:00;;;;;;;14.88;8.63;;;;;;;16.63;60.62;99968.38;5196372;28;20053;-68
2022/07/17 05:55:51;;;;;;;13.52;8.40;;;;;;;16.71;59.99;99975.59;5186184;28;20046;-68
2022/07/17 05:58:41;;;;;;;16.63;8.18;;;;;;;16.73;61.00;99972.78;5190690;28;20129;-67
2022/07/17 06:01:31;;;;;;;17.90;8.38;;;;;;;17.34;58.99;99979.75;5191563;28;20079;-68
2022/07/17 06:04:22;;;;;;;11.80;7.82;;;;;;;17.11;58.11;99979.50;5183092;28;20057;-68
2022/07/17 06:07:13;;;;;;;8.38;6.78;;;;;;;17.06;59.40;99977.31;5183951;28;20538;-68
2022/07/17 06:10:05;;;;;;;10.55;7.53;;;;;;;17.35;59.04;99974.25;5177535;28;20064;-67
2022/07/17 06:12:56;;;;;;;10.00;7.20;;;;;;;17.67;56.63;99979.81;5188125;28;20053;-69
2022/07/17 06:15:46;;;;;;;12.10;7.32;;;;;;;17.66;57.09;99976.31;5177964;28;20580;-68
2022/07/17 06:18:36;;;;;;;9.65;6.38;;;;;;;17.64;57.04;99980.16;5190794;28;20049;-67
2022/07/17 06:21:27;;;;;;;11.77;7.22;;;;;;;17.79;56.51;99982.06;5183131;28;20060;-68
2022/07/17 06:24:18;;;;;;;11.05;6.55;;;;;;;17.66;57.33;99979.00;5170478;28;20180;-67
2022/07/17 06:27:09;;;;;;;11.15;6.10;;;;;;;18.15;55.40;99980.91;5187776;28;20053;-68
2022/07/17 06:29:59;;;;;;;10.15;5.82;;;;;;;18.07;55.70;99979.88;5189464;28;20053;-67
2022/07/17 06:32:49;;;;;;;8.75;5.80;;;;;;;18.18;54.43;99985.91;5188690;28;20512;-66
2022/07/17 06:35:40;;;;;;;10.30;5.65;;;;;;;17.94;53.68;99963.44;5182076;28;20137;-67
2022/07/17 06:38:35;;;;;;;8.80;5.53;;;;;;;18.13;54.60;99991.78;5187276;28;20044;-66
2022/07/17 06:41:25;;;;;;;9.23;5.18;;;;;;;18.28;55.14;99992.78;5182296;28;20050;-67
2022/07/17 06:44:16;;;;;;;10.32;5.00;;;;;;;18.55;52.52;99990.75;5188664;28;20101;-68
2022/07/17 06:47:06;;;;;;;5.47;4.50;;;;;;;18.54;51.16;99989.03;5183748;28;20045;-67
2022/07/17 06:49:56;;;;;;;6.25;4.38;;;;;;;18.51;51.46;99978.66;5185033;28;20057;-69
2022/07/17 06:52:46;;;;;;;5.78;4.05;;;;;;;18.78;50.83;99986.34;5185208;28;20053;-68
2022/07/17 06:55:37;;;;;;;8.40;3.75;;;;;;;19.04;51.11;99996.00;5184801;28;20538;-69
2022/07/17 06:58:27;;;;;;;5.85;4.13;;;;;;;19.13;50.42;99988.72;5190385;28;20065;-68
2022/07/17 07:01:17;;;;;;;5.90;3.95;;;;;;;19.54;49.86;99999.28;5188364;28;20064;-69
2022/07/17 07:04:07;;;;;;;7.45;3.60;;;;;;;19.55;48.95;99968.69;5195075;28;20594;-68
2022/07/17 07:06:57;;;;;;;7.47;3.42;;;;;;;20.19;49.19;99991.59;5188913;28;20053;-66
2022/07/17 07:09:47;;;;;;;7.78;3.13;;;;;;;21.21;43.99;99982.94;5177729;28;20427;-69
2022/07/17 07:12:37;;;;;;;4.18;2.75;;;;;;;22.57;41.26;99988.47;5179627;28;20057;-69
2022/07/17 07:15:28;;;;;;;4.40;2.90;;;;;;;23.58;39.76;99992.31;5183219;28;20060;-67
2022/07/17 07:18:18;;;;;;;4.93;2.50;;;;;;;24.40;36.63;99995.75;5181372;28;20077;-66
2022/07/17 07:21:09;;;;;;;3.20;2.50;;;;;;;24.94;35.89;100001.97;5187201;28;20056;-66
2022/07/17 07:23:59;;;;;;;4.45;2.47;;;;;;;25.17;35.35;100007.78;5176580;28;20053;-66
2022/07/17 07:26:49;;;;;;;6.85;2.65;;;;;;;25.37;34.27;100002.25;5184414;28;20057;-66
2022/07/17 07:29:38;;;;;;;3.15;2.28;;;;;;;25.93;33.69;99998.84;5183316;28;20052;-66
2022/07/17 07:32:29;;;;;;;4.75;1.90;;;;;;;26.78;32.53;99992.06;5179542;28;20041;-66
2022/07/17 07:35:19;;;;;;;3.95;1.88;;;;;;;26.98;32.14;99992.66;5182683;28;20129;-67
2022/07/17 07:38:10;;;;;;;3.17;1.92;;;;;;;27.76;30.01;99994.66;5178294;28;20050;-66
2022/07/17 07:41:00;;;;;;;3.70;1.90;;;;;;;28.09;29.66;99988.69;5177366;28;20056;-67
2022/07/17 07:43:50;;;;;;;4.65;1.88;;;;;;;27.96;29.68;99988.91;5179877;28;20104;-66
2022/07/17 07:46:40;;;;;;;5.18;2.00;;;;;;;27.71;30.11;99988.19;5180258;28;20424;-66
2022/07/17 07:49:30;;;;;;;2.17;1.75;;;;;;;27.24;31.70;99993.44;5179225;28;20415;-66
2022/07/17 07:52:28;;;;;;;6.40;1.70;;;;;;;28.08;29.91;99992.50;5192538;28;20050;-66
2022/07/17 07:55:20;;;;;;;5.20;1.83;;;;;;;28.30;30.52;99994.63;5176205;28;20139;-70
2022/07/17 07:58:13;;;;;;;2.45;1.77;;;;;;;29.17;28.75;99988.47;5174760;28;20092;-68
2022/07/17 08:01:03;;;;;;;2.65;1.60;;;;;;;29.16;29.38;99995.00;5182081;28;20722;-67
2022/07/17 08:03:54;;;;;;;1.95;1.70;;;;;;;28.89;28.75;100000.13;5188252;28;20052;-67
2022/07/17 08:06:44;;;;;;;2.80;1.73;;;;;;;29.37;29.55;99988.91;5191603;28;20057;-67
2022/07/17 08:09:34;;;;;;;2.72;1.80;;;;;;;29.20;29.34;99991.53;5185013;28;20049;-67
2022/07/17 08:12:24;;;;;;;8.10;1.70;;;;;;;29.95;28.06;99985.06;5190626;28;20519;-67
2022/07/17 08:15:34;;;;;;;2.00;1.70;;;;;;;30.26;26.99;99987.50;5188472;28;20061;-67
2022/07/17 08:18:25;;;;;;;2.00;1.80;;;;;;;30.25;27.15;99981.22;5183740;28;20546;-68
2022/07/17 08:21:16;;;;;;;2.53;1.50;;;;;;;30.49;27.89;99987.31;5189346;28;20048;-68
2022/07/17 08:24:06;;;;;;;3.83;2.00;;;;;;;30.84;27.33;99975.28;5190974;28;20041;-67
2022/07/17 08:26:56;;;;;;;4.28;1.98;;;;;;;31.33;26.00;99978.94;5184648;28;20060;-67
2022/07/17 08:29:47;;;;;;;1.75;1.63;;;;;;;30.85;27.20;99983.22;5190979;28;20057;-67
2022/07/17 08:32:51;;;;;;;;;;;;;;;30.61;26.85;99984.50;5182468;28;20042;-67
2022/07/17 08:35:41;;;;;;;1.98;1.50;;;;;;;31.05;26.22;99981.84;5184687;28;19987;-68
2022/07/17 08:38:31;;;;;;;4.43;2.10;;;;;;;30.85;26.97;99983.22;5191420;28;20546;-68
2022/07/17 08:41:22;;;;;;;2.35;1.63;;;;;;;30.86;27.64;99982.16;5174610;28;20470;-68
2022/07/17 08:44:12;;;;;;;3.92;1.42;;;;;;;31.16;27.01;99969.09;5187918;28;20622;-68
2022/07/17 08:47:05;;;;;;;3.05;1.67;;;;;;;31.76;26.95;99982.69;5192159;28;20057;-68
2022/07/17 08:49:55;;;;;;;4.13;1.70;;;;;;;31.19;26.31;99979.53;5189398;28;20423;-68
2022/07/17 08:52:45;;;;;;;2.28;1.45;;;;;;;31.70;25.96;99978.22;5184201;28;20580;-67
2022/07/17 08:55:36;;;;;;;2.20;1.60;;;;;;;32.32;26.00;99984.25;5170206;28;20049;-67
2022/07/17 08:58:26;;;;;;;3.78;1.83;;;;;;;32.64;25.20;99985.06;5189573;28;20121;-67
2022/07/17 09:01:18;;;;;;;2.28;1.50;;;;;;;32.14;25.72;99989.06;5185632;28;20053;-67
2022/07/17 09:04:09;;;;;;;2.85;1.52;;;;;;;32.58;24.87;99977.88;5193180;28;20060;-67
2022/07/17 09:07:01;;;;;;;2.50;1.60;;;;;;;32.52;24.53;99981.72;5192778;28;20054;-67
2022/07/17 09:09:52;;;;;;;3.60;1.50;;;;;;;32.08;24.91;99981.88;5181364;28;20878;-69
2022/07/17 09:12:43;;;;;;;2.83;1.60;;;;;;;30.83;25.69;99974.44;5188115;28;20042;-68
2022/07/17 09:15:33;;;;;;;2.05;1.60;;;;;;;32.79;24.34;99978.03;5181659;28;20536;-68
2022/07/17 09:18:24;;;;;;;4.93;1.48;;;;;;;32.47;25.75;99976.16;5178765;28;20127;-69
2022/07/17 09:21:23;;;;;;;3.58;1.45;;;;;;;31.65;24.45;99980.91;5195723;28;20448;-69
2022/07/17 09:24:13;;;;;;;3.05;1.48;;;;;;;32.59;23.12;99973.25;5191188;28;20057;-68
2022/07/17 09:27:03;;;;;;;4.60;1.42;;;;;;;33.34;23.09;99979.38;5199377;28;20418;-68
2022/07/17 09:29:58;;;;;;;4.25;1.60;;;;;;;33.21;22.83;99970.56;5187239;28;20462;-70
2022/07/17 09:32:50;;;;;;;3.85;1.30;;;;;;;33.04;23.43;99969.09;5175312;28;20684;-71
2022/07/17 09:35:49;;;;;;;3.55;1.33;;;;;;;33.24;21.17;99957.34;5193205;28;20058;-68
2022/07/17 09:38:41;;;;;;;2.97;1.20;;;;;;;33.75;22.87;99963.00;5187516;28;20114;-67
2022/07/17 09:41:33;;;;;;;2.53;1.60;;;;;;;33.54;21.70;99962.94;5182509;28;20133;-70
2022/07/17 09:44:23;;;;;;;4.78;1.55;;;;;;;32.84;23.64;99945.06;5178414;28;20561;-69
2022/07/17 09:47:13;;;;;;;3.78;1.27;;;;;;;33.27;23.24;99951.31;5192389;28;20168;-71
2022/07/17 09:50:07;;;;;;;1.40;1.20;;;;;;;33.11;21.51;99954.00;5187149;28;20053;-71
2022/07/17 09:52:57;;;;;;;2.00;1.45;;;;;;;33.06;22.26;99948.50;5186955;28;20046;-71
2022/07/17 09:55:50;;;;;;;4.68;1.40;;;;;;;33.50;22.06;99961.84;5200554;28;20092;-70
2022/07/17 09:58:44;;;;;;;1.15;1.05;;;;;;;34.25;21.73;99950.38;5190386;28;20052;-70
2022/07/17 10:01:36;;;;;;;2.50;1.35;;;;;;;33.06;23.80;99942.19;5186407;28;20203;-72
2022/07/17 10:04:28;;;;;;;1.70;1.40;;;;;;;32.88;21.13;99954.41;5195796;28;20535;-69
2022/07/17 10:07:21;;;;;;;1.73;1.30;;;;;;;33.34;21.48;99963.69;5177165;28;20064;-72
2022/07/17 10:10:13;;;;;;;4.40;1.45;;;;;;;33.75;22.64;99952.81;5169120;28;20076;-70
2022/07/17 10:13:04;;;;;;;1.50;1.30;;;;;;;33.39;23.44;99946.41;5171681;28;20065;-71
2022/07/17 10:15:54;;;;;;;2.25;1.30;;;;;;;31.72;23.06;99947.78;5178848;28;20100;-69
2022/07/17 10:18:44;;;;;;;3.45;1.45;;;;;;;31.75;23.13;99941.78;5180749;28;20235;-70
2022/07/17 10:21:35;;;;;;;2.70;1.77;;;;;;;31.96;24.37;99935.44;5191861;28;20052;-71
2022/07/17 10:24:30;;;;;;;5.63;1.60;;;;;;;32.93;22.91;99944.28;5195321;28;20195;-70
2022/07/17 10:27:30;;;;;;;6.07;1.70;;;;;;;33.39;23.39;99943.66;5195808;28;20061;-70
2022/07/17 10:30:26;;;;;;;4.00;1.48;;;;;;;32.90;21.76;99935.75;5178662;28;20144;-71
2022/07/17 10:33:17;;;;;;;3.88;1.27;;;;;;;33.32;23.71;99937.59;5187084;28;20568;-69
2022/07/17 10:36:07;;;;;;;2.83;1.52;;;;;;;33.11;23.22;99932.00;5175713;28;20208;-69
2022/07/17 10:38:58;;;;;;;2.67;1.20;;;;;;;33.55;21.85;99931.63;5179032;28;20058;-69
2022/07/17 10:41:57;;;;;;;1.65;1.45;;;;;;;33.03;23.05;99926.22;5177425;28;20073;-72
2022/07/17 10:44:48;;;;;;;3.85;1.50;;;;;;;33.28;22.76;99922.72;5179960;28;20621;-72
2022/07/17 10:47:53;;;;;;;1.30;1.20;;;;;;;32.81;23.16;99923.63;5182489;28;20637;-69
2022/07/17 10:50:52;;;;;;;2.22;1.30;;;;;;;32.01;24.40;99908.03;5177503;28;20064;-70
2022/07/17 10:53:43;;;;;;;1.80;1.35;;;;;;;32.93;21.69;99921.50;5182247;28;20076;-69
2022/07/17 10:56:35;;;;;;;1.35;1.25;;;;;;;33.16;23.69;99912.81;5178178;28;20061;-71
2022/07/17 10:59:25;;;;;;;2.78;1.50;;;;;;;33.78;22.24;99916.53;5180776;28;20052;-69
2022/07/17 11:02:16;;;;;;;5.18;1.70;;;;;;;33.84;21.49;99914.56;5177022;28;20137;-69
2022/07/17 11:05:09;;;;;;;1.67;1.30;;;;;;;33.71;21.88;99907.72;5174628;28;20521;-68
2022/07/17 11:08:01;;;;;;;2.63;1.50;;;;;;;33.16;22.92;99915.56;5179176;28;20124;-68
2022/07/17 11:10:51;;;;;;;2.10;1.30;;;;;;;32.26;23.49;99910.13;5170916;28;20056;-69
2022/07/17 11:13:41;;;;;;;2.20;1.27;;;;;;;32.31;23.32;99908.50;5176689;28;20056;-68
2022/07/17 11:16:31;;;;;;;3.28;1.30;;;;;;;32.40;23.42;99904.19;5177585;28;20046;-69
2022/07/17 11:19:33;;;;;;;1.58;1.40;;;;;;;33.13;22.98;99907.03;5178433;28;20235;-69
2022/07/17 11:22:24;;;;;;;3.92;1.50;;;;;;;32.53;22.99;99891.94;5171826;28;20053;-70
2022/07/17 11:25:14;;;;;;;2.72;1.20;;;;;;;32.25;22.84;99902.16;5176125;28;20046;-68
2022/07/17 11:28:04;;;;;;;3.10;1.27;;;;;;;32.81;23.08;99904.41;5174877;28;20191;-70
2022/07/17 11:30:55;;;;;;;1.65;1.42;;;;;;;32.62;24.56;99902.16;5175985;28;20064;-69
2022/07/17 11:33:53;;;;;;;2.40;1.40;;;;;;;32.69;22.56;99894.47;5179964;28;20123;-68
2022/07/17 11:36:44;;;;;;;1.30;1.20;;;;;;;32.49;23.25;99897.97;5176241;28;20420;-71
2022/07/17 11:39:49;;;;;;;1.92;1.10;;;;;;;32.00;21.88;99886.38;5178311;28;20038;-68
2022/07/17 11:42:39;;;;;;;2.92;1.20;;;;;;;32.15;23.33;99900.16;5174746;28;20056;-69
2022/07/17 11:45:29;;;;;;;4.15;1.23;;;;;;;32.44;23.16;99895.16;5177800;28;20145;-69
2022/07/17 11:48:19;;;;;;;2.35;1.48;;;;;;;32.39;23.12;99892.38;5179885;28;20072;-72
2022/07/17 11:51:10;;;;;;;3.55;1.52;;;;;;;32.37;23.13;99888.25;5176197;28;20061;-71
2022/07/17 11:54:18;;;;;;;1.58;1.42;;;;;;;32.65;21.94;99885.13;5175577;28;20124;-73
2022/07/17 11:57:08;;;;;;;3.72;1.60;;;;;;;32.55;24.42;99882.34;5175185;28;20069;-70
2022/07/17 12:00:07;;;;;;;2.75;1.60;;;;;;;32.74;22.45;99894.50;5177243;28;20049;-72
2022/07/17 12:03:06;;;;;;;1.60;1.40;;;;;;;32.64;22.01;99868.91;5180414;28;20057;-70
2022/07/17 12:05:57;;;;;;;2.83;1.20;;;;;;;32.19;21.87;99881.28;5178366;28;20073;-69
2022/07/17 12:08:52;;;;;;;2.20;1.73;;;;;;;31.90;22.80;99873.41;5176149;28;20179;-67
2022/07/17 12:11:49;;;;;;;2.63;1.58;;;;;;;31.93;25.28;99875.63;5175602;28;20071;-68
2022/07/17 12:15:06;;;;;;;2.13;1.40;;;;;;;31.84;23.08;99868.94;5178267;28;20187;-69
2022/07/17 12:17:57;;;;;;;2.47;1.17;;;;;;;32.30;23.84;99872.00;5177998;28;20060;-73
2022/07/17 12:20:50;;;;;;;2.20;1.70;;;;;;;31.86;23.79;99866.75;5171925;28;20132;-70
2022/07/17 12:23:41;;;;;;;3.83;1.77;;;;;;;31.50;23.87;99879.34;5172827;28;20487;-69
2022/07/17 12:26:32;;;;;;;2.63;1.73;;;;;;;31.67;22.87;99869.06;5176135;28;20496;-69
2022/07/17 12:29:25;;;;;;;4.65;1.30;;;;;;;31.11;24.55;99865.78;5173920;28;20076;-69
2022/07/17 12:32:17;;;;;;;5.90;1.55;;;;;;;30.95;24.00;99869.41;5177602;28;20416;-70
2022/07/17 12:35:07;;;;;;;3.38;1.95;;;;;;;31.10;24.14;99870.44;5174697;28;20172;-70
2022/07/17 12:37:58;;;;;;;3.28;1.65;;;;;;;30.70;23.87;99865.28;5176865;28;20658;-70
2022/07/17 12:40:48;;;;;;;1.52;1.42;;;;;;;30.39;23.80;99864.88;5177158;28;20065;-68
2022/07/17 12:43:39;;;;;;;2.15;1.52;;;;;;;30.85;25.26;99868.22;5183357;28;20049;-69
2022/07/17 12:46:29;;;;;;;2.75;1.63;;;;;;;30.25;24.03;99863.56;5189805;28;20404;-70
2022/07/17 12:49:20;;;;;;;2.70;1.30;;;;;;;30.43;24.73;99866.03;5203527;28;20541;-70
2022/07/17 12:52:10;;;;;;;2.67;1.25;;;;;;;30.27;23.78;99858.69;5186959;28;20053;-69
2022/07/17 12:55:00;;;;;;;2.03;1.20;;;;;;;30.81;22.96;99855.31;5184398;28;20444;-71
2022/07/17 12:57:50;;;;;;;2.17;1.45;;;;;;;30.82;22.91;99854.22;5195934;28;20049;-69
2022/07/17 13:00:41;;;;;;;2.75;1.38;;;;;;;31.02;22.85;99854.44;5181993;28;20184;-70
2022/07/17 13:03:32;;;;;;;3.42;1.40;;;;;;;30.96;23.34;99858.22;5179007;28;20116;-68
2022/07/17 13:06:22;;;;;;;5.05;1.58;;;;;;;31.08;23.08;99858.88;5178939;28;20054;-70
2022/07/17 13:09:12;;;;;;;3.92;1.20;;;;;;;30.32;23.60;99856.00;5187516;28;20412;-70
2022/07/17 13:12:03;;;;;;;2.17;1.48;;;;;;;30.93;23.93;99857.88;5179674;28;20056;-72
2022/07/17 13:14:54;;;;;;;1.40;1.30;;;;;;;30.91;23.72;99860.06;5183910;28;20053;-70
2022/07/17 13:17:44;;;;;;;7.63;1.67;;;;;;;30.49;23.28;99858.69;5191414;28;20049;-73
2022/07/17 13:20:34;;;;;;;1.98;1.40;;;;;;;30.60;23.07;99859.69;5184997;28;20048;-72
2022/07/17 13:23:24;;;;;;;4.57;1.23;;;;;;;30.80;23.21;99846.28;5195767;28;20536;-71